This is the latest recevied weather packets stored in our database for station/object K6CEG. If no packets are shown the sender has not sent any weather packets the latest 10 day(s).
| Time | Temp. | Humidity | Pressure | Rain* | Wind** | Luminosity | Snow |
|---|---|---|---|---|---|---|---|
| 1788119475 | 33.89° C | 38% | 1013.8 hPa | 0 mm | - | 662 W/m² | - |
| 1788119175 | 33.33° C | 38% | 1014.2 hPa | 0 mm | - | 685 W/m² | - |
| 1788118875 | 33.89° C | 38% | 1013.9 hPa | 0 mm | - | 704 W/m² | - |
| 1788118575 | 33.33° C | 38% | 1014.1 hPa | 0 mm | - | 695 W/m² | - |
| 1788118270 | 33.33° C | 39% | 1014.1 hPa | 0 mm | - | 691 W/m² | - |
| 1788117965 | 32.78° C | 40% | 1014 hPa | 0 mm | - | 715 W/m² | - |
| 1788117664 | 32.78° C | 40% | 1014.2 hPa | 0 mm | - | 741 W/m² | - |
| 1788117360 | 32.22° C | 41% | 1014.2 hPa | 0 mm | - | 739 W/m² | - |
| 1788117056 | 32.78° C | 41% | 1014 hPa | 0 mm | - | 772 W/m² | - |
| 1788116751 | 32.22° C | 43% | 1014.3 hPa | 0 mm | - | 795 W/m² | - |
| 1788116447 | 32.78° C | 43% | 1014.4 hPa | 0 mm | - | 784 W/m² | - |
| 1788116145 | 32.22° C | 44% | 1014.4 hPa | 0 mm | - | 763 W/m² | - |
| 1788115841 | 32.78° C | 43% | 1014.2 hPa | 0 mm | - | 737 W/m² | - |
| 1788115539 | 32.22° C | 43% | 1014.3 hPa | 0 mm | - | 718 W/m² | - |
| 1788115234 | 32.22° C | 44% | 1014.4 hPa | 0 mm | - | 714 W/m² | - |
| 1788114929 | 31.67° C | 45% | 1014.5 hPa | 0 mm | - | 741 W/m² | - |
| 1788114630 | 32.22° C | 45% | 1014.3 hPa | 0 mm | - | 793 W/m² | - |
| 1788114320 | 32.22° C | 46% | 1014.5 hPa | 0 mm | - | 812 W/m² | - |
| 1788114016 | 31.11° C | 46% | 1014.7 hPa | 0 mm | - | 856 W/m² | - |
| 1788113712 | 31.11° C | 47% | 1014.6 hPa | 0 mm | - | 396 W/m² | - |
| 1788113412 | 31.11° C | 48% | 1014.5 hPa | 0 mm | - | 533 W/m² | - |
| 1788113112 | 31.67° C | 47% | 1014.4 hPa | 0 mm | - | 631 W/m² | - |
| 1788112811 | 31.11° C | 47% | 1014.4 hPa | 0 mm | - | 816 W/m² | - |
| 1788112511 | 30.56° C | 50% | 1014.6 hPa | 0 mm | - | 642 W/m² | - |
| 1788112206 | 30.56° C | 49% | 1014.5 hPa | 0 mm | - | 579 W/m² | - |
* Rain latest hour (hover to see other rain measurements)
** Current wind speed in m/s (hover to see current wind gust speed)